Terminal Aerodrome Forecast
Issued by NWS

Current Version | Previous Version | Graphics & Text | Print | Product List | Glossary On
Versions: 1 2 3 4 5 6 7 8 9 10 11 12 13 14 15 16 17 18 19 20 21 22
000
FTUS41 KRLX 251100
TAFCKB
TAF
KCKB 251122Z 2512/2612 25010G18KT P6SM OVC035
      TEMPO 2512/2514 BKN025
     FM251400 25010G18KT P6SM OVC025
     FM251900 25010G15KT P6SM BKN035
     FM252300 23005KT P6SM BKN045
     FM260200 VRB03KT P6SM SCT060
     FM261000 00000KT 6SM BR SCT250=

USA.gov is the U.S. government's official web portal to all federal, state and local government web resources and services.